Latest Weather Observations for Kyabram

IDV60801

Issued at 10:22 pm EDT Saturday 23 February 2019 (issued every 10 minutes, with the page automatically refreshed every 10 minutes)

About weather observations | Map of weather stations | Latest weather observations for VIC | Other Formats
Station Details ID: 080091 Name: KYABRAM Lat: -36.34 Lon: 145.06 Height: 105.0 m
Data from the previous 72 hours. | See also: Recent months at Kyabram
Date/Time
EDT
Temp
°C
App
Temp
°C
Dew
Point
°C
Rel
Hum
%
Delta-T
°C
Wind Press
QNH
hPa
Press
MSL
hPa
Rain since
9am
mm
Dir  Spd
km/h
Gust
km/h
Spd
kts
Gust
kts
23/10:00pm 23.6 21.8 12.0 48 6.6 S 13 17 7 9 - - 0.0
23/09:30pm 24.4 22.8 11.7 45 7.2 S 11 17 6 9 - - 0.0
23/09:00pm 25.0 23.6 10.8 41 8.0 S 9 17 5 9 - - 0.0
23/08:30pm 24.5 23.6 7.6 34 8.9 SSW 2 7 1 4 - - 0.0
23/08:00pm 26.8 26.1 6.8 28 10.6 CALM 0 0 0 0 - - 0.0
23/07:30pm 29.0 28.3 7.0 25 11.8 CALM 0 0 0 0 - - 0.0
23/07:00pm 30.2 28.0 6.1 22 12.8 S 7 13 4 7 - - 0.0
23/06:30pm 30.5 27.8 5.7 21 13.1 S 9 19 5 10 - - 0.0
23/06:00pm 31.0 28.6 5.4 20 13.5 S 7 20 4 11 - - 0.0
23/05:30pm 31.2 28.9 5.6 20 13.6 SE 7 13 4 7 - - 0.0
23/05:00pm 30.4 28.2 6.3 22 12.9 SSE 7 15 4 8 - - 0.0
23/04:30pm 30.6 28.5 6.5 22 13.0 S 7 15 4 8 - - 0.0
23/04:00pm 30.6 28.5 8.3 25 12.3 SE 9 19 5 10 - - 0.0
23/03:30pm 30.1 28.6 8.5 26 12.0 S 6 13 3 7 - - 0.0
23/03:00pm 30.3 28.6 9.8 28 11.6 SSE 9 17 5 9 - - 0.0
23/02:30pm 28.9 27.7 9.6 30 10.8 E 6 17 3 9 - - 0.0
23/02:00pm 28.6 26.4 9.3 30 10.8 E 11 19 6 10 - - 0.0
23/01:30pm 27.5 26.0 9.3 32 10.1 E 7 15 4 8 - - 0.0
23/01:00pm 27.6 25.5 9.9 33 9.9 ESE 11 17 6 9 - - 0.0
23/12:30pm 26.4 24.7 9.7 35 9.3 ENE 9 17 5 9 - - 0.0
23/12:00pm 26.1 24.0 9.9 36 9.0 ENE 11 19 6 10 - - 0.0
23/11:30am 25.0 23.0 10.1 39 8.3 E 11 19 6 10 - - 0.0
23/11:00am 23.5 21.5 10.2 43 7.3 ESE 11 19 6 10 - - 0.0
23/10:30am 22.1 19.8 10.3 47 6.5 E 13 19 7 10 - - 0.0
23/10:00am 21.1 18.8 10.6 51 5.8 SE 13 20 7 11 - - 0.0
23/09:30am 19.8 17.6 10.8 56 4.9 SSE 13 22 7 12 - - 0.0
23/09:00am 18.2 15.9 10.3 60 4.2 SSE 13 20 7 11 - - 0.0
23/08:30am 16.9 14.6 10.5 66 3.4 SSE 13 20 7 11 - - 0.0
23/08:00am 15.6 13.3 10.6 72 2.7 SSE 13 22 7 12 - - 0.0
23/07:30am 14.7 12.4 10.5 76 2.2 SSE 13 24 7 13 - - 0.0
23/07:00am 14.4 12.1 10.4 77 2.1 SSE 13 24 7 13 - - 0.0
23/06:30am 14.2 11.9 10.4 78 2.0 S 13 24 7 13 - - 0.0
23/06:00am 14.1 12.2 10.5 79 1.9 S 11 19 6 10 - - 0.0
23/05:30am 14.4 12.2 10.8 79 1.9 S 13 24 7 13 - - 0.0
23/05:00am 14.4 12.6 10.8 79 1.9 S 11 19 6 10 - - 0.0
23/04:30am 14.4 12.2 10.8 79 1.9 S 13 20 7 11 - - 0.0
23/04:00am 14.6 12.8 11.0 79 1.9 S 11 19 6 10 - - 0.0
23/03:30am 15.0 12.9 11.2 78 2.0 S 13 20 7 11 - - 0.0
23/03:00am 15.0 12.9 11.2 78 2.0 S 13 22 7 12 - - 0.0
23/02:30am 15.0 12.9 11.0 77 2.1 S 13 22 7 12 - - 0.0
23/02:00am 15.2 12.6 10.8 75 2.3 S 15 22 8 12 - - 0.0
23/01:30am 15.6 13.4 10.8 73 2.6 S 13 20 7 11 - - 0.0
23/01:00am 16.1 13.1 10.8 71 2.8 S 17 26 9 14 - - 0.0
23/12:30am 16.7 14.6 11.2 70 3.0 S 13 20 7 11 - - 0.0
23/12:00am 16.8 14.4 11.3 70 3.0 S 15 20 8 11 - - 0.0
 
Date/Time
EDT
Temp
°C
App
Temp
°C
Dew
Point
°C
Rel
Hum
%
Delta-T
°C
Wind Press
QNH
hPa
Press
MSL
hPa
Rain since
9am
mm
Dir  Spd
km/h
Gust
km/h
Spd
kts
Gust
kts
22/11:30pm 17.2 15.2 11.5 69 3.1 S 13 22 7 12 - - 0.0
22/11:00pm 17.8 15.8 11.4 66 3.5 S 13 19 7 10 - - 0.0
22/10:30pm 18.7 15.9 11.3 62 4.1 S 17 28 9 15 - - 0.0
22/10:00pm 19.7 16.4 10.9 57 4.8 S 19 30 10 16 - - 0.0
22/09:30pm 20.6 18.4 10.7 53 5.4 S 13 19 7 10 - - 0.0
22/09:00pm 21.7 18.1 10.5 49 6.2 S 20 28 11 15 - - 0.0
22/08:30pm 23.0 19.2 9.8 43 7.2 S 20 32 11 17 - - 0.0
22/08:00pm 24.7 20.0 7.8 34 9.0 SSW 22 33 12 18 - - 0.0
22/07:30pm 26.0 21.6 7.6 31 9.8 S 20 33 11 18 - - 0.0
22/07:00pm 27.8 23.4 6.6 26 11.2 S 19 28 10 15 - - 0.0
22/06:30pm 28.8 23.9 5.0 22 12.3 S 20 32 11 17 - - 0.0
22/06:00pm 29.8 24.9 2.1 17 13.8 S 17 26 9 14 - - 0.0
22/05:30pm 30.0 24.9 0.6 15 14.2 S 17 28 9 15 - - 0.0
22/05:00pm 30.6 26.3 1.0 15 14.5 S 13 22 7 12 - - 0.0
22/04:30pm 30.8 26.7 4.5 19 13.7 SSE 15 28 8 15 - - 0.0
22/04:00pm 30.4 26.3 6.3 22 12.9 S 17 32 9 17 - - 0.0
22/03:30pm 30.3 27.0 8.1 25 12.2 S 15 32 8 17 - - 0.0
22/03:00pm 29.2 26.6 9.3 29 11.1 SSW 13 22 7 12 - - 0.0
22/02:30pm 29.5 27.7 12.0 34 10.2 SW 13 20 7 11 - - 0.0
22/02:00pm 28.5 27.2 12.4 37 9.4 SW 11 19 6 10 - - 0.0
22/01:30pm 26.8 24.5 10.5 36 9.2 S 13 26 7 14 - - 0.0
22/01:00pm 26.9 24.6 10.6 36 9.2 S 13 24 7 13 - - 0.0
22/12:30pm 26.1 24.6 10.7 38 8.7 ESE 9 19 5 10 - - 0.0
22/12:00pm 25.5 23.7 10.9 40 8.2 SSE 11 19 6 10 - - 0.0
22/11:30am 24.7 22.6 9.8 39 8.2 SE 11 19 6 10 - - 0.0
22/11:00am 23.1 20.3 8.4 39 7.8 SE 13 19 7 10 - - 0.0
22/10:30am 21.7 18.6 8.9 44 6.8 SSE 15 22 8 12 - - 0.0
22/10:00am 20.1 17.4 8.8 48 6.0 SSE 13 24 7 13 - - 0.0
22/09:30am 18.5 15.0 8.7 53 5.1 SSE 17 26 9 14 - - 0.0
22/09:00am 17.7 14.3 9.1 57 4.5 S 17 28 9 15 - - 0.0
22/08:30am 16.6 13.7 9.5 63 3.7 SSE 15 24 8 13 - - 0.0
22/08:00am 15.4 12.4 9.3 67 3.2 SSE 15 24 8 13 - - 0.0
22/07:30am 14.6 11.6 9.2 70 2.8 SSE 15 24 8 13 - - 0.0
22/07:00am 14.0 11.4 9.4 74 2.4 S 13 24 7 13 - - 0.0
22/06:30am 13.6 11.4 9.3 75 2.2 S 11 17 6 9 - - 0.0
22/06:00am 14.0 11.8 9.4 74 2.4 S 11 19 6 10 - - 0.0
22/05:30am 13.9 11.3 9.5 75 2.3 S 13 20 7 11 - - 0.0
22/05:00am 14.2 12.0 9.4 73 2.5 S 11 22 6 12 - - 0.0
22/04:30am 14.2 11.6 9.4 73 2.5 S 13 20 7 11 - - 0.0
22/04:00am 14.5 11.6 9.5 72 2.6 S 15 26 8 14 - - 0.0
22/03:30am 14.3 11.7 9.3 72 2.6 S 13 22 7 12 - - 0.0
22/03:00am 14.6 11.9 9.0 69 2.9 S 13 20 7 11 - - 0.0
22/02:30am 14.9 12.2 9.1 68 3.0 S 13 24 7 13 - - 0.0
22/02:00am 15.3 12.7 9.2 67 3.1 S 13 24 7 13 - - 0.0
22/01:30am 15.7 11.9 9.1 65 3.4 S 19 28 10 15 - - 0.0
22/01:00am 15.9 12.2 9.3 65 3.4 S 19 30 10 16 - - 0.0
22/12:30am 16.1 13.1 9.3 64 3.5 S 15 24 8 13 - - 0.0
22/12:00am 16.4 13.4 9.1 62 3.8 S 15 24 8 13 - - 0.0
 
Date/Time
EDT
Temp
°C
App
Temp
°C
Dew
Point
°C
Rel
Hum
%
Delta-T
°C
Wind Press
QNH
hPa
Press
MSL
hPa
Rain since
9am
mm
Dir  Spd
km/h
Gust
km/h
Spd
kts
Gust
kts
21/11:30pm 16.8 13.4 9.0 60 4.0 S 17 26 9 14 - - 0.0
21/11:00pm 17.1 13.4 9.3 60 4.1 S 19 32 10 17 - - 0.0
21/10:30pm 17.6 13.8 9.0 57 4.5 S 19 28 10 15 - - 0.0
21/10:00pm 18.2 14.5 9.3 56 4.7 SSW 19 28 10 15 - - 0.0
21/09:30pm 18.7 14.8 9.5 55 4.9 SSW 20 28 11 15 - - 0.0
21/09:00pm 19.3 15.6 9.5 53 5.2 S 19 30 10 16 - - 0.0
21/08:30pm 20.2 15.9 9.2 49 5.8 SSW 22 35 12 19 - - 0.0
21/08:00pm 21.3 16.9 8.9 45 6.6 S 22 37 12 20 - - 0.0
21/07:30pm 22.7 17.7 8.0 39 7.8 S 24 35 13 19 - - 0.0
21/07:00pm 24.1 19.9 8.1 36 8.5 S 20 35 11 19 - - 0.0
21/06:30pm 24.9 20.5 7.5 33 9.2 S 20 37 11 20 - - 0.0
21/06:00pm 25.6 20.8 7.2 31 9.7 SSW 22 33 12 18 - - 0.0
21/05:30pm 26.2 20.9 6.8 29 10.2 SSW 24 33 13 18 - - 0.0
21/05:00pm 26.5 21.0 6.0 27 10.7 S 24 37 13 20 - - 0.0
21/04:30pm 26.9 22.6 6.9 28 10.6 S 19 35 10 19 - - 0.0
21/04:00pm 26.9 22.1 7.4 29 10.4 S 22 33 12 18 - - 0.0
21/03:30pm 26.0 21.5 7.1 30 10.0 SSW 20 35 11 19 - - 0.0
21/03:00pm 25.4 20.3 6.1 29 10.0 SSW 22 37 12 20 - - 0.0
21/02:30pm 25.6 21.1 6.8 30 9.9 S 20 32 11 17 - - 0.0
21/02:00pm 26.0 22.4 8.5 33 9.5 S 17 28 9 15 - - 0.0
21/01:30pm 25.1 22.4 9.0 36 8.8 SSE 13 33 7 18 - - 0.0
21/01:00pm 23.6 20.0 8.5 38 8.1 S 17 26 9 14 - - 0.0
21/12:30pm 23.9 21.1 9.9 41 7.7 SSE 15 22 8 12 - - 0.0
21/12:00pm 22.1 18.6 8.9 43 7.1 S 17 30 9 16 - - 0.0
21/11:30am 21.3 17.6 9.5 47 6.3 S 19 32 10 17 - - 0.0
21/11:00am 20.6 17.4 9.8 50 5.8 S 17 26 9 14 - - 0.0
21/10:30am 19.3 15.5 9.8 54 5.1 S 20 33 11 18 - - 0.0
21/10:00am 18.6 14.4 9.7 56 4.7 S 22 35 12 19 - - 0.0
21/09:30am 18.1 14.4 10.0 59 4.3 S 20 35 11 19 - - 0.0
21/09:00am 16.7 13.0 9.4 62 3.8 S 19 26 10 14 - - 0.0
21/08:30am 15.8 12.0 9.2 65 3.4 S 19 30 10 16 - - 0.0
21/08:00am 14.6 11.5 8.8 68 3.0 SSW 15 22 8 12 - - 0.0
21/07:30am 13.4 10.7 9.1 75 2.2 SSW 13 17 7 9 - - 0.0
21/07:00am 13.0 10.0 9.4 79 1.8 SSW 15 20 8 11 - - 0.0
21/06:30am 12.8 10.2 9.4 80 1.7 SSW 13 17 7 9 - - 0.0
21/06:00am 13.4 10.5 9.5 77 2.0 SSW 15 20 8 11 - - 0.0
21/05:30am 13.5 10.8 8.8 73 2.4 SSW 13 17 7 9 - - 0.0
21/05:00am 14.0 11.6 8.8 71 2.6 SSW 11 15 6 8 - - 0.0
21/04:30am 14.7 11.7 9.1 69 2.9 SSW 15 22 8 12 - - 0.0
21/04:00am 15.0 12.4 9.4 69 2.9 S 13 20 7 11 - - 0.0
21/03:30am 15.6 12.8 9.9 69 3.0 S 15 24 8 13 - - 0.0
21/03:00am 16.1 13.0 10.4 69 3.0 S 17 24 9 13 - - 0.0
21/02:30am 16.5 14.2 10.6 68 3.2 S 13 22 7 12 - - 0.0
21/02:00am 16.6 14.9 10.0 65 3.5 S 9 15 5 8 - - 0.0
21/01:30am 17.2 15.6 10.1 63 3.8 S 9 17 5 9 - - 0.0
21/01:00am 17.5 15.9 10.1 62 3.9 S 9 19 5 10 - - 0.0
21/12:30am 18.1 15.7 10.0 59 4.3 S 13 20 7 11 - - 0.0
21/12:00am 18.6 15.0 9.9 57 4.6 S 19 32 10 17 - - 0.0
 
Date/Time
EDT
Temp
°C
App
Temp
°C
Dew
Point
°C
Rel
Hum
%
Delta-T
°C
Wind Press
QNH
hPa
Press
MSL
hPa
Rain since
9am
mm
Dir  Spd
km/h
Gust
km/h
Spd
kts
Gust
kts
20/11:30pm 19.2 16.5 10.2 56 4.8 S 15 26 8 14 - - 0.0
20/11:00pm 19.6 16.8 10.0 54 5.2 S 15 24 8 13 - - 0.0
20/10:30pm 20.2 17.7 9.7 51 5.6 S 13 19 7 10 - - 0.0

Other formats

Comma delimited format used in spreadsheet applications
http://www.bom.gov.au/fwo/IDV60801/IDV60801.95833.axf

JavaScript Object Notation format (JSON) in row-major order
http://www.bom.gov.au/fwo/IDV60801/IDV60801.95833.json

Data quality

Most of these data are generated automatically and are frequently updated. Quality checks on data are not normally performed. It is possible for incorrect values to appear. Refer to information at About Latest Weather Observations and please check the disclaimer before using these data.